AirportContent of METAR report
LYBEMETAR LYBE 191400Z 14011KT CAVOK 17/08 Q1019 NOSIG=
LYBTMETAR LYBT 191400Z 09007KT CAVOK 17/09 Q1019 NOSIG=
LYKVMETAR LYKV 191400Z 15006KT CAVOK 16/09 Q1019 NOSIG=
LYNIMETAR LYNI 191400Z 10007KT 070V130 CAVOK 17/08 Q1020 NOSIG=
LYVRMETAR LYVR 191400Z 13021KT 100V160 CAVOK 16/08 Q1019 NOSIG=
LYUZMETAR LYUZ 191400Z 10009KT 060V130 CAVOK 09/02 Q1020=
LYPGMETAR LYPG 191400Z 26002KT 9999 SCT050 BKN080 14/10 Q1018 NOSIG=
LYTVMETAR LYTV 191400Z 00000KT 9999 SCT050 OVC080 16/11 Q1017 NOSIG=

Data loaded: 2019-11-19 14:06:10 UTC

METAR, TAF, AIRMET, GAMET, SIGMET

Important note: MET information on these web pages are informative and restricted to aeronautical users, must not be used for any commercial purpose, and do not replace flight documentation.